sensor_id;sensor_type;location;lat;lon;timestamp;temperature;humidity
14144;DHT22;7152;48.348;10.980;2023-02-26T00:00:27;-0.50;99.90
14144;DHT22;7152;48.348;10.980;2023-02-26T00:02:53;-0.50;99.90
14144;DHT22;7152;48.348;10.980;2023-02-26T00:05:18;-0.40;99.90
14144;DHT22;7152;48.348;10.980;2023-02-26T00:07:44;-0.50;99.90
14144;DHT22;7152;48.348;10.980;2023-02-26T00:10:12;-0.40;99.90
14144;DHT22;7152;48.348;10.980;2023-02-26T00:12:38;-0.40;99.90
14144;DHT22;7152;48.348;10.980;2023-02-26T00:15:05;-0.40;99.90
14144;DHT22;7152;48.348;10.980;2023-02-26T00:17:48;-0.40;99.90
14144;DHT22;7152;48.348;10.980;2023-02-26T00:20:16;-0.40;99.90
14144;DHT22;7152;48.348;10.980;2023-02-26T00:22:42;-0.40;99.90
14144;DHT22;7152;48.348;10.980;2023-02-26T00:25:08;-0.40;99.90
14144;DHT22;7152;48.348;10.980;2023-02-26T00:27:35;-0.40;99.90
14144;DHT22;7152;48.348;10.980;2023-02-26T00:30:05;-0.40;99.90
14144;DHT22;7152;48.348;10.980;2023-02-26T00:32:32;-0.40;99.90
14144;DHT22;7152;48.348;10.980;2023-02-26T00:34:58;-0.30;99.90
14144;DHT22;7152;48.348;10.980;2023-02-26T00:42:46;-0.40;99.90
14144;DHT22;7152;48.348;10.980;2023-02-26T00:45:13;-0.40;99.90
14144;DHT22;7152;48.348;10.980;2023-02-26T00:47:51;-0.40;99.90
14144;DHT22;7152;48.348;10.980;2023-02-26T00:50:22;-0.50;99.90
14144;DHT22;7152;48.348;10.980;2023-02-26T00:55:18;-0.60;99.90
14144;DHT22;7152;48.348;10.980;2023-02-26T00:57:44;-0.70;99.90
14144;DHT22;7152;48.348;10.980;2023-02-26T01:00:10;-0.80;99.90
14144;DHT22;7152;48.348;10.980;2023-02-26T01:02:38;-0.90;99.90
14144;DHT22;7152;48.348;10.980;2023-02-26T01:05:04;-0.90;99.90
14144;DHT22;7152;48.348;10.980;2023-02-26T01:07:39;-1.00;99.90
14144;DHT22;7152;48.348;10.980;2023-02-26T01:10:05;-1.10;99.90
14144;DHT22;7152;48.348;10.980;2023-02-26T01:12:31;-1.10;99.90
14144;DHT22;7152;48.348;10.980;2023-02-26T01:14:57;-1.20;99.90
14144;DHT22;7152;48.348;10.980;2023-02-26T01:19:56;-1.20;99.90
14144;DHT22;7152;48.348;10.980;2023-02-26T01:22:51;-1.20;99.90
14144;DHT22;7152;48.348;10.980;2023-02-26T01:27:49;-1.30;99.90
14144;DHT22;7152;48.348;10.980;2023-02-26T01:30:15;-1.30;99.90
14144;DHT22;7152;48.348;10.980;2023-02-26T01:35:48;-1.30;99.90
14144;DHT22;7152;48.348;10.980;2023-02-26T01:41:29;-1.40;99.90
14144;DHT22;7152;48.348;10.980;2023-02-26T01:49:24;-1.50;99.90
14144;DHT22;7152;48.348;10.980;2023-02-26T01:51:58;-1.60;99.90
14144;DHT22;7152;48.348;10.980;2023-02-26T01:54:50;-1.60;99.90
14144;DHT22;7152;48.348;10.980;2023-02-26T01:57:16;-1.60;99.90
14144;DHT22;7152;48.348;10.980;2023-02-26T01:59:45;-1.70;99.90
14144;DHT22;7152;48.348;10.980;2023-02-26T02:02:16;-1.70;99.90
14144;DHT22;7152;48.348;10.980;2023-02-26T02:04:43;-1.70;99.90
14144;DHT22;7152;48.348;10.980;2023-02-26T02:07:10;-1.70;99.90
14144;DHT22;7152;48.348;10.980;2023-02-26T02:09:35;-1.80;99.90
14144;DHT22;7152;48.348;10.980;2023-02-26T02:14:55;-1.80;99.90
14144;DHT22;7152;48.348;10.980;2023-02-26T02:28:19;-2.00;99.90
14144;DHT22;7152;48.348;10.980;2023-02-26T02:33:22;-2.00;99.90
14144;DHT22;7152;48.348;10.980;2023-02-26T02:35:59;-2.00;99.90
14144;DHT22;7152;48.348;10.980;2023-02-26T02:41:39;-2.00;99.90
14144;DHT22;7152;48.348;10.980;2023-02-26T02:44:12;-2.10;99.90
14144;DHT22;7152;48.348;10.980;2023-02-26T02:46:40;-2.00;99.90
14144;DHT22;7152;48.348;10.980;2023-02-26T02:52:11;-2.00;99.90
14144;DHT22;7152;48.348;10.980;2023-02-26T02:54:50;-2.00;99.90
14144;DHT22;7152;48.348;10.980;2023-02-26T02:57:24;-2.10;99.90
14144;DHT22;7152;48.348;10.980;2023-02-26T02:59:54;-2.10;99.90
14144;DHT22;7152;48.348;10.980;2023-02-26T03:02:29;-2.10;99.90
14144;DHT22;7152;48.348;10.980;2023-02-26T03:04:56;-2.20;99.90
14144;DHT22;7152;48.348;10.980;2023-02-26T03:07:22;-2.20;99.90
14144;DHT22;7152;48.348;10.980;2023-02-26T03:09:48;-2.20;99.90
14144;DHT22;7152;48.348;10.980;2023-02-26T03:12:14;-2.30;99.90
14144;DHT22;7152;48.348;10.980;2023-02-26T03:14:40;-2.30;99.90
14144;DHT22;7152;48.348;10.980;2023-02-26T03:17:37;-2.40;99.90
14144;DHT22;7152;48.348;10.980;2023-02-26T03:20:14;-2.40;99.90
14144;DHT22;7152;48.348;10.980;2023-02-26T03:22:52;-2.40;99.90
14144;DHT22;7152;48.348;10.980;2023-02-26T03:25:44;-2.40;99.90
14144;DHT22;7152;48.348;10.980;2023-02-26T03:28:17;-2.40;99.90
14144;DHT22;7152;48.348;10.980;2023-02-26T03:39:18;-2.40;99.90
14144;DHT22;7152;48.348;10.980;2023-02-26T03:42:53;-2.30;99.90
14144;DHT22;7152;48.348;10.980;2023-02-26T03:44:54;-2.30;99.90
14144;DHT22;7152;48.348;10.980;2023-02-26T03:47:22;-2.30;99.90
14144;DHT22;7152;48.348;10.980;2023-02-26T03:49:54;-2.20;99.90
14144;DHT22;7152;48.348;10.980;2023-02-26T03:52:24;-2.20;99.90
14144;DHT22;7152;48.348;10.980;2023-02-26T03:55:00;-2.10;99.90
14144;DHT22;7152;48.348;10.980;2023-02-26T03:57:26;-2.10;99.90
14144;DHT22;7152;48.348;10.980;2023-02-26T03:59:52;-2.00;99.90
14144;DHT22;7152;48.348;10.980;2023-02-26T04:02:24;-2.00;99.90
14144;DHT22;7152;48.348;10.980;2023-02-26T04:05:17;-1.90;99.90
14144;DHT22;7152;48.348;10.980;2023-02-26T04:07:45;-1.90;99.90
14144;DHT22;7152;48.348;10.980;2023-02-26T04:10:14;-1.80;99.90
14144;DHT22;7152;48.348;10.980;2023-02-26T04:12:41;-1.90;99.90
14144;DHT22;7152;48.348;10.980;2023-02-26T04:15:07;-1.90;99.90
14144;DHT22;7152;48.348;10.980;2023-02-26T04:17:33;-1.90;99.90
14144;DHT22;7152;48.348;10.980;2023-02-26T04:19:59;-1.90;99.90
14144;DHT22;7152;48.348;10.980;2023-02-26T04:22:24;-1.90;99.90
14144;DHT22;7152;48.348;10.980;2023-02-26T04:24:50;-1.90;99.90
14144;DHT22;7152;48.348;10.980;2023-02-26T04:27:16;-2.00;99.90
14144;DHT22;7152;48.348;10.980;2023-02-26T04:29:41;-2.00;99.90
14144;DHT22;7152;48.348;10.980;2023-02-26T04:32:08;-2.00;99.90
14144;DHT22;7152;48.348;10.980;2023-02-26T04:34:34;-2.00;99.90
14144;DHT22;7152;48.348;10.980;2023-02-26T04:36:59;-2.10;99.90
14144;DHT22;7152;48.348;10.980;2023-02-26T04:39:25;-2.00;99.90
14144;DHT22;7152;48.348;10.980;2023-02-26T04:41:50;-2.00;99.90
14144;DHT22;7152;48.348;10.980;2023-02-26T04:44:16;-2.10;99.90
14144;DHT22;7152;48.348;10.980;2023-02-26T04:46:42;-2.10;99.90
14144;DHT22;7152;48.348;10.980;2023-02-26T04:49:07;-2.10;99.90
14144;DHT22;7152;48.348;10.980;2023-02-26T04:51:33;-2.20;99.90
14144;DHT22;7152;48.348;10.980;2023-02-26T04:53:58;-2.20;99.90
14144;DHT22;7152;48.348;10.980;2023-02-26T04:56:24;-2.30;99.90
14144;DHT22;7152;48.348;10.980;2023-02-26T04:58:50;-2.20;99.90
14144;DHT22;7152;48.348;10.980;2023-02-26T05:01:16;-2.30;99.90
14144;DHT22;7152;48.348;10.980;2023-02-26T05:03:41;-2.30;99.90
14144;DHT22;7152;48.348;10.980;2023-02-26T05:06:07;-2.40;99.90
14144;DHT22;7152;48.348;10.980;2023-02-26T05:08:33;-2.50;99.90
14144;DHT22;7152;48.348;10.980;2023-02-26T05:10:58;-2.50;99.90
14144;DHT22;7152;48.348;10.980;2023-02-26T05:13:24;-2.60;99.90
14144;DHT22;7152;48.348;10.980;2023-02-26T05:15:52;-2.60;99.90
14144;DHT22;7152;48.348;10.980;2023-02-26T05:18:18;-2.60;99.90
14144;DHT22;7152;48.348;10.980;2023-02-26T05:20:44;-2.70;99.90
14144;DHT22;7152;48.348;10.980;2023-02-26T05:23:10;-2.80;99.90
14144;DHT22;7152;48.348;10.980;2023-02-26T05:25:35;-2.80;99.90
14144;DHT22;7152;48.348;10.980;2023-02-26T05:28:01;-2.80;99.90
14144;DHT22;7152;48.348;10.980;2023-02-26T05:30:26;-2.80;99.90
14144;DHT22;7152;48.348;10.980;2023-02-26T05:32:52;-2.90;99.90
14144;DHT22;7152;48.348;10.980;2023-02-26T05:35:19;-2.90;99.90
14144;DHT22;7152;48.348;10.980;2023-02-26T05:37:44;-2.90;99.90
14144;DHT22;7152;48.348;10.980;2023-02-26T05:40:10;-3.00;99.90
14144;DHT22;7152;48.348;10.980;2023-02-26T05:42:37;-3.00;99.90
14144;DHT22;7152;48.348;10.980;2023-02-26T05:45:04;-3.00;99.90
14144;DHT22;7152;48.348;10.980;2023-02-26T05:47:31;-3.00;99.90
14144;DHT22;7152;48.348;10.980;2023-02-26T05:49:57;-3.10;99.90
14144;DHT22;7152;48.348;10.980;2023-02-26T05:52:22;-3.20;99.90
14144;DHT22;7152;48.348;10.980;2023-02-26T05:54:48;-3.30;99.90
14144;DHT22;7152;48.348;10.980;2023-02-26T05:57:14;-3.30;99.90
14144;DHT22;7152;48.348;10.980;2023-02-26T05:59:39;-3.30;99.90
14144;DHT22;7152;48.348;10.980;2023-02-26T06:02:05;-3.40;99.90
14144;DHT22;7152;48.348;10.980;2023-02-26T06:04:31;-3.40;99.90
14144;DHT22;7152;48.348;10.980;2023-02-26T06:06:57;-3.40;99.90
14144;DHT22;7152;48.348;10.980;2023-02-26T06:09:22;-3.40;99.90
14144;DHT22;7152;48.348;10.980;2023-02-26T06:11:48;-3.40;99.90
14144;DHT22;7152;48.348;10.980;2023-02-26T06:14:14;-3.40;99.90
14144;DHT22;7152;48.348;10.980;2023-02-26T06:16:39;-3.40;99.90
14144;DHT22;7152;48.348;10.980;2023-02-26T06:19:05;-3.40;99.90
14144;DHT22;7152;48.348;10.980;2023-02-26T06:21:31;-3.40;99.90
14144;DHT22;7152;48.348;10.980;2023-02-26T06:23:56;-3.40;99.90
14144;DHT22;7152;48.348;10.980;2023-02-26T06:26:22;-3.40;99.90
14144;DHT22;7152;48.348;10.980;2023-02-26T06:28:47;-3.40;99.90
14144;DHT22;7152;48.348;10.980;2023-02-26T06:31:13;-3.40;99.90
14144;DHT22;7152;48.348;10.980;2023-02-26T06:33:39;-3.40;99.90
14144;DHT22;7152;48.348;10.980;2023-02-26T06:36:05;-3.40;99.90
14144;DHT22;7152;48.348;10.980;2023-02-26T06:38:30;-3.40;99.90
14144;DHT22;7152;48.348;10.980;2023-02-26T06:40:56;-3.40;99.90
14144;DHT22;7152;48.348;10.980;2023-02-26T06:43:22;-3.40;99.90
14144;DHT22;7152;48.348;10.980;2023-02-26T06:45:47;-3.30;99.90
14144;DHT22;7152;48.348;10.980;2023-02-26T06:48:13;-3.40;99.90
14144;DHT22;7152;48.348;10.980;2023-02-26T06:50:39;-3.40;99.90
14144;DHT22;7152;48.348;10.980;2023-02-26T06:53:04;-3.40;99.90
14144;DHT22;7152;48.348;10.980;2023-02-26T06:55:31;-3.30;99.90
14144;DHT22;7152;48.348;10.980;2023-02-26T06:57:57;-3.30;99.90
14144;DHT22;7152;48.348;10.980;2023-02-26T07:00:24;-3.30;99.90
14144;DHT22;7152;48.348;10.980;2023-02-26T07:02:50;-3.30;99.90
14144;DHT22;7152;48.348;10.980;2023-02-26T07:05:16;-3.30;99.90
14144;DHT22;7152;48.348;10.980;2023-02-26T07:07:42;-3.20;99.90
14144;DHT22;7152;48.348;10.980;2023-02-26T07:10:09;-3.30;99.90
14144;DHT22;7152;48.348;10.980;2023-02-26T07:12:35;-3.30;99.90
14144;DHT22;7152;48.348;10.980;2023-02-26T07:15:04;-3.20;99.90
14144;DHT22;7152;48.348;10.980;2023-02-26T07:17:29;-3.20;99.90
14144;DHT22;7152;48.348;10.980;2023-02-26T07:19:55;-3.20;99.90
14144;DHT22;7152;48.348;10.980;2023-02-26T07:22:21;-3.20;99.90
14144;DHT22;7152;48.348;10.980;2023-02-26T07:24:46;-3.20;99.90
14144;DHT22;7152;48.348;10.980;2023-02-26T07:27:12;-3.20;99.90
14144;DHT22;7152;48.348;10.980;2023-02-26T07:29:38;-3.10;99.90
14144;DHT22;7152;48.348;10.980;2023-02-26T07:32:04;-3.00;99.90
14144;DHT22;7152;48.348;10.980;2023-02-26T07:34:30;-3.00;99.90
14144;DHT22;7152;48.348;10.980;2023-02-26T07:36:56;-2.80;99.90
14144;DHT22;7152;48.348;10.980;2023-02-26T07:39:24;-2.60;99.90
14144;DHT22;7152;48.348;10.980;2023-02-26T07:41:50;-2.40;99.90
14144;DHT22;7152;48.348;10.980;2023-02-26T07:44:15;-2.10;99.90
14144;DHT22;7152;48.348;10.980;2023-02-26T07:46:41;-1.90;99.90
14144;DHT22;7152;48.348;10.980;2023-02-26T07:49:06;-1.60;99.90
14144;DHT22;7152;48.348;10.980;2023-02-26T07:51:32;-1.40;99.90
14144;DHT22;7152;48.348;10.980;2023-02-26T07:53:58;-1.30;99.90
14144;DHT22;7152;48.348;10.980;2023-02-26T07:56:23;-1.30;99.90
14144;DHT22;7152;48.348;10.980;2023-02-26T07:58:49;-1.10;99.90
14144;DHT22;7152;48.348;10.980;2023-02-26T08:01:14;-1.00;99.90
14144;DHT22;7152;48.348;10.980;2023-02-26T08:03:40;-0.80;99.90
14144;DHT22;7152;48.348;10.980;2023-02-26T08:06:06;-0.80;99.90
14144;DHT22;7152;48.348;10.980;2023-02-26T08:08:33;-0.70;99.90
14144;DHT22;7152;48.348;10.980;2023-02-26T08:10:59;-0.60;99.90
14144;DHT22;7152;48.348;10.980;2023-02-26T08:13:26;-0.40;99.90
14144;DHT22;7152;48.348;10.980;2023-02-26T08:15:52;-0.40;99.90
14144;DHT22;7152;48.348;10.980;2023-02-26T08:18:17;-0.30;99.90
14144;DHT22;7152;48.348;10.980;2023-02-26T08:20:43;-0.10;99.90
14144;DHT22;7152;48.348;10.980;2023-02-26T08:23:09;-0.20;99.90
14144;DHT22;7152;48.348;10.980;2023-02-26T08:25:35;-0.40;99.90
14144;DHT22;7152;48.348;10.980;2023-02-26T08:28:00;-0.40;99.90
14144;DHT22;7152;48.348;10.980;2023-02-26T08:30:28;-0.40;99.90
14144;DHT22;7152;48.348;10.980;2023-02-26T08:32:54;-0.40;99.90
14144;DHT22;7152;48.348;10.980;2023-02-26T08:35:19;-0.50;99.90
14144;DHT22;7152;48.348;10.980;2023-02-26T08:37:45;-0.40;99.90
14144;DHT22;7152;48.348;10.980;2023-02-26T08:40:11;-0.20;99.90
14144;DHT22;7152;48.348;10.980;2023-02-26T08:42:37;-0.10;99.90
14144;DHT22;7152;48.348;10.980;2023-02-26T08:45:03;0.10;99.90
14144;DHT22;7152;48.348;10.980;2023-02-26T08:47:29;0.40;99.90
14144;DHT22;7152;48.348;10.980;2023-02-26T08:49:55;0.70;99.90
14144;DHT22;7152;48.348;10.980;2023-02-26T08:52:21;1.00;99.90
14144;DHT22;7152;48.348;10.980;2023-02-26T08:54:47;1.10;99.90
14144;DHT22;7152;48.348;10.980;2023-02-26T08:57:13;1.10;99.90
14144;DHT22;7152;48.348;10.980;2023-02-26T08:59:38;1.00;99.90
14144;DHT22;7152;48.348;10.980;2023-02-26T09:02:04;0.90;99.90
14144;DHT22;7152;48.348;10.980;2023-02-26T09:04:30;0.80;99.90
14144;DHT22;7152;48.348;10.980;2023-02-26T09:06:55;1.00;99.90
14144;DHT22;7152;48.348;10.980;2023-02-26T09:09:21;1.10;99.90
14144;DHT22;7152;48.348;10.980;2023-02-26T09:11:47;1.30;99.90
14144;DHT22;7152;48.348;10.980;2023-02-26T09:14:12;1.30;99.90
14144;DHT22;7152;48.348;10.980;2023-02-26T09:16:39;1.50;99.90
14144;DHT22;7152;48.348;10.980;2023-02-26T09:19:05;1.50;99.90
14144;DHT22;7152;48.348;10.980;2023-02-26T09:21:31;1.10;99.90
14144;DHT22;7152;48.348;10.980;2023-02-26T09:23:57;1.10;99.90
14144;DHT22;7152;48.348;10.980;2023-02-26T09:26:23;1.00;99.90
14144;DHT22;7152;48.348;10.980;2023-02-26T09:28:49;0.90;99.90
14144;DHT22;7152;48.348;10.980;2023-02-26T09:31:15;0.70;99.90
14144;DHT22;7152;48.348;10.980;2023-02-26T09:33:41;0.60;99.90
14144;DHT22;7152;48.348;10.980;2023-02-26T09:36:07;0.60;99.90
14144;DHT22;7152;48.348;10.980;2023-02-26T09:38:33;0.60;99.90
14144;DHT22;7152;48.348;10.980;2023-02-26T09:41:06;0.50;99.90
14144;DHT22;7152;48.348;10.980;2023-02-26T09:44:42;0.60;99.90
14144;DHT22;7152;48.348;10.980;2023-02-26T09:54:38;0.70;99.90
14144;DHT22;7152;48.348;10.980;2023-02-26T09:57:10;0.80;99.90
14144;DHT22;7152;48.348;10.980;2023-02-26T09:59:38;0.70;99.90
14144;DHT22;7152;48.348;10.980;2023-02-26T10:02:16;0.60;99.90
14144;DHT22;7152;48.348;10.980;2023-02-26T10:05:19;0.70;99.90
14144;DHT22;7152;48.348;10.980;2023-02-26T10:08:12;0.70;99.90
14144;DHT22;7152;48.348;10.980;2023-02-26T10:10:49;0.70;99.90
14144;DHT22;7152;48.348;10.980;2023-02-26T10:13:37;0.70;99.90
14144;DHT22;7152;48.348;10.980;2023-02-26T10:16:10;0.70;99.90
14144;DHT22;7152;48.348;10.980;2023-02-26T10:18:41;0.80;99.90
14144;DHT22;7152;48.348;10.980;2023-02-26T10:21:13;0.80;99.90
14144;DHT22;7152;48.348;10.980;2023-02-26T10:23:57;0.90;99.90
14144;DHT22;7152;48.348;10.980;2023-02-26T10:26:49;0.90;99.90
14144;DHT22;7152;48.348;10.980;2023-02-26T10:34:49;1.40;99.90
14144;DHT22;7152;48.348;10.980;2023-02-26T10:39:53;1.80;99.90
14144;DHT22;7152;48.348;10.980;2023-02-26T10:42:36;1.90;99.90
14144;DHT22;7152;48.348;10.980;2023-02-26T10:50:22;2.20;99.90
14144;DHT22;7152;48.348;10.980;2023-02-26T10:52:50;2.20;99.90
14144;DHT22;7152;48.348;10.980;2023-02-26T11:00:25;2.40;99.90
14144;DHT22;7152;48.348;10.980;2023-02-26T11:02:52;2.50;99.90
14144;DHT22;7152;48.348;10.980;2023-02-26T11:05:24;2.50;99.90
14144;DHT22;7152;48.348;10.980;2023-02-26T11:07:54;2.50;99.90
14144;DHT22;7152;48.348;10.980;2023-02-26T11:10:23;2.50;99.90
14144;DHT22;7152;48.348;10.980;2023-02-26T11:12:50;2.80;99.90
14144;DHT22;7152;48.348;10.980;2023-02-26T11:15:18;3.00;99.90
14144;DHT22;7152;48.348;10.980;2023-02-26T11:17:46;2.90;99.90
14144;DHT22;7152;48.348;10.980;2023-02-26T11:20:38;2.80;99.90
14144;DHT22;7152;48.348;10.980;2023-02-26T11:23:15;3.10;99.90
14144;DHT22;7152;48.348;10.980;2023-02-26T11:25:41;3.10;99.90
14144;DHT22;7152;48.348;10.980;2023-02-26T11:29:02;3.10;99.90
14144;DHT22;7152;48.348;10.980;2023-02-26T11:31:10;2.90;99.90
14144;DHT22;7152;48.348;10.980;2023-02-26T11:33:39;2.80;99.90
14144;DHT22;7152;48.348;10.980;2023-02-26T11:36:16;2.50;99.90
14144;DHT22;7152;48.348;10.980;2023-02-26T11:38:55;2.60;99.90
14144;DHT22;7152;48.348;10.980;2023-02-26T11:41:22;2.70;99.90
14144;DHT22;7152;48.348;10.980;2023-02-26T11:44:00;2.90;99.90
14144;DHT22;7152;48.348;10.980;2023-02-26T11:46:27;2.90;99.90
14144;DHT22;7152;48.348;10.980;2023-02-26T11:48:54;2.80;99.90
14144;DHT22;7152;48.348;10.980;2023-02-26T11:51:24;2.70;99.90
14144;DHT22;7152;48.348;10.980;2023-02-26T11:53:56;2.60;99.90
14144;DHT22;7152;48.348;10.980;2023-02-26T11:56:35;2.50;99.90
14144;DHT22;7152;48.348;10.980;2023-02-26T11:59:23;2.60;99.90
14144;DHT22;7152;48.348;10.980;2023-02-26T12:01:50;2.40;99.90
14144;DHT22;7152;48.348;10.980;2023-02-26T12:04:25;2.20;99.90
14144;DHT22;7152;48.348;10.980;2023-02-26T12:06:52;2.10;99.90
14144;DHT22;7152;48.348;10.980;2023-02-26T12:09:19;2.10;99.90
14144;DHT22;7152;48.348;10.980;2023-02-26T12:28:47;2.90;99.90
14144;DHT22;7152;48.348;10.980;2023-02-26T12:34:36;3.40;99.90
14144;DHT22;7152;48.348;10.980;2023-02-26T12:42:59;3.60;99.90
14144;DHT22;7152;48.348;10.980;2023-02-26T12:51:38;3.40;99.90
14144;DHT22;7152;48.348;10.980;2023-02-26T13:08:09;3.00;99.90
14144;DHT22;7152;48.348;10.980;2023-02-26T13:13:29;3.00;99.90
14144;DHT22;7152;48.348;10.980;2023-02-26T13:16:21;3.00;99.90
14144;DHT22;7152;48.348;10.980;2023-02-26T13:21:29;2.80;99.90
14144;DHT22;7152;48.348;10.980;2023-02-26T13:26:30;4.50;99.90
14144;DHT22;7152;48.348;10.980;2023-02-26T13:31:42;6.30;99.90
14144;DHT22;7152;48.348;10.980;2023-02-26T13:34:15;7.20;99.90
14144;DHT22;7152;48.348;10.980;2023-02-26T13:36:42;7.70;99.90
14144;DHT22;7152;48.348;10.980;2023-02-26T13:51:05;8.70;99.90
14144;DHT22;7152;48.348;10.980;2023-02-26T13:58:54;7.70;99.90
14144;DHT22;7152;48.348;10.980;2023-02-26T14:01:31;6.70;99.90
14144;DHT22;7152;48.348;10.980;2023-02-26T14:06:49;5.20;99.90
14144;DHT22;7152;48.348;10.980;2023-02-26T14:12:01;4.80;99.90
14144;DHT22;7152;48.348;10.980;2023-02-26T14:14:47;4.50;99.90
14144;DHT22;7152;48.348;10.980;2023-02-26T14:17:39;4.30;99.90
14144;DHT22;7152;48.348;10.980;2023-02-26T14:20:26;4.00;99.90
14144;DHT22;7152;48.348;10.980;2023-02-26T14:25:46;3.50;99.90
14144;DHT22;7152;48.348;10.980;2023-02-26T14:30:52;3.10;99.90
14144;DHT22;7152;48.348;10.980;2023-02-26T14:33:29;2.90;99.90
14144;DHT22;7152;48.348;10.980;2023-02-26T14:35:54;3.30;99.90
14144;DHT22;7152;48.348;10.980;2023-02-26T14:38:27;3.50;99.90
14144;DHT22;7152;48.348;10.980;2023-02-26T14:41:13;4.00;99.90
14144;DHT22;7152;48.348;10.980;2023-02-26T14:43:50;4.60;99.90
14144;DHT22;7152;48.348;10.980;2023-02-26T14:46:19;5.40;99.90
14144;DHT22;7152;48.348;10.980;2023-02-26T14:48:45;5.90;99.90
14144;DHT22;7152;48.348;10.980;2023-02-26T14:57:07;5.50;99.90
14144;DHT22;7152;48.348;10.980;2023-02-26T15:04:48;3.80;99.90
14144;DHT22;7152;48.348;10.980;2023-02-26T15:21:22;2.60;99.90
14144;DHT22;7152;48.348;10.980;2023-02-26T15:23:52;2.60;99.90
14144;DHT22;7152;48.348;10.980;2023-02-26T15:26:22;2.60;99.90
14144;DHT22;7152;48.348;10.980;2023-02-26T15:28:50;2.70;99.90
14144;DHT22;7152;48.348;10.980;2023-02-26T15:31:19;2.70;99.90
14144;DHT22;7152;48.348;10.980;2023-02-26T15:33:48;2.60;99.90
14144;DHT22;7152;48.348;10.980;2023-02-26T15:36:18;2.10;99.90
14144;DHT22;7152;48.348;10.980;2023-02-26T15:39:06;1.80;99.90
14144;DHT22;7152;48.348;10.980;2023-02-26T15:41:34;1.50;99.90
14144;DHT22;7152;48.348;10.980;2023-02-26T15:44:06;1.50;99.90
14144;DHT22;7152;48.348;10.980;2023-02-26T15:46:36;1.50;99.90
14144;DHT22;7152;48.348;10.980;2023-02-26T15:49:12;1.40;99.90
14144;DHT22;7152;48.348;10.980;2023-02-26T15:51:40;1.40;99.90
14144;DHT22;7152;48.348;10.980;2023-02-26T15:54:08;1.30;99.90
14144;DHT22;7152;48.348;10.980;2023-02-26T15:56:39;1.20;99.90
14144;DHT22;7152;48.348;10.980;2023-02-26T15:59:16;1.20;99.90
14144;DHT22;7152;48.348;10.980;2023-02-26T16:01:42;1.20;99.90
14144;DHT22;7152;48.348;10.980;2023-02-26T16:04:14;0.90;99.90
14144;DHT22;7152;48.348;10.980;2023-02-26T16:07:01;0.80;99.90
14144;DHT22;7152;48.348;10.980;2023-02-26T16:09:33;0.80;99.90
14144;DHT22;7152;48.348;10.980;2023-02-26T16:12:03;0.70;99.90
14144;DHT22;7152;48.348;10.980;2023-02-26T16:14:34;0.60;99.90
14144;DHT22;7152;48.348;10.980;2023-02-26T16:17:01;0.50;99.90
14144;DHT22;7152;48.348;10.980;2023-02-26T16:19:35;0.40;99.90
14144;DHT22;7152;48.348;10.980;2023-02-26T16:22:17;0.40;99.90
14144;DHT22;7152;48.348;10.980;2023-02-26T16:24:45;0.40;99.90
14144;DHT22;7152;48.348;10.980;2023-02-26T16:27:14;0.40;99.90
14144;DHT22;7152;48.348;10.980;2023-02-26T16:29:49;0.50;99.90
14144;DHT22;7152;48.348;10.980;2023-02-26T16:32:16;0.60;99.90
14144;DHT22;7152;48.348;10.980;2023-02-26T16:34:54;0.40;99.90
14144;DHT22;7152;48.348;10.980;2023-02-26T16:37:24;0.30;99.90
14144;DHT22;7152;48.348;10.980;2023-02-26T16:40:22;0.30;99.90
14144;DHT22;7152;48.348;10.980;2023-02-26T16:48:25;0.10;99.90
14144;DHT22;7152;48.348;10.980;2023-02-26T16:51:12;0.00;99.90
14144;DHT22;7152;48.348;10.980;2023-02-26T16:53:59;-0.10;99.90
14144;DHT22;7152;48.348;10.980;2023-02-26T16:56:29;-0.20;99.90
14144;DHT22;7152;48.348;10.980;2023-02-26T16:59:03;-0.30;99.90
14144;DHT22;7152;48.348;10.980;2023-02-26T17:01:35;-0.40;99.90
14144;DHT22;7152;48.348;10.980;2023-02-26T17:04:02;-0.40;99.90
14144;DHT22;7152;48.348;10.980;2023-02-26T17:06:29;-0.40;99.90
14144;DHT22;7152;48.348;10.980;2023-02-26T17:08:59;-0.50;99.90
14144;DHT22;7152;48.348;10.980;2023-02-26T17:11:30;-0.50;99.90
14144;DHT22;7152;48.348;10.980;2023-02-26T17:14:23;-0.60;99.90
14144;DHT22;7152;48.348;10.980;2023-02-26T17:16:50;-0.60;99.90
14144;DHT22;7152;48.348;10.980;2023-02-26T17:19:17;-0.60;99.90
14144;DHT22;7152;48.348;10.980;2023-02-26T17:21:52;-0.70;99.90
14144;DHT22;7152;48.348;10.980;2023-02-26T17:24:33;-0.70;99.90
14144;DHT22;7152;48.348;10.980;2023-02-26T17:27:02;-0.70;99.90
14144;DHT22;7152;48.348;10.980;2023-02-26T17:29:39;-0.70;99.90
14144;DHT22;7152;48.348;10.980;2023-02-26T17:32:28;-0.80;99.90
14144;DHT22;7152;48.348;10.980;2023-02-26T17:34:56;-0.80;99.90
14144;DHT22;7152;48.348;10.980;2023-02-26T17:37:22;-0.80;99.90
14144;DHT22;7152;48.348;10.980;2023-02-26T17:39:48;-0.80;99.90
14144;DHT22;7152;48.348;10.980;2023-02-26T17:42:17;-0.80;99.90
14144;DHT22;7152;48.348;10.980;2023-02-26T17:44:48;-0.80;99.90
14144;DHT22;7152;48.348;10.980;2023-02-26T17:47:16;-0.80;99.90
14144;DHT22;7152;48.348;10.980;2023-02-26T17:49:42;-0.90;99.90
14144;DHT22;7152;48.348;10.980;2023-02-26T17:52:08;-0.90;99.90
14144;DHT22;7152;48.348;10.980;2023-02-26T17:54:34;-0.90;99.90
14144;DHT22;7152;48.348;10.980;2023-02-26T17:57:00;-1.00;99.90
14144;DHT22;7152;48.348;10.980;2023-02-26T17:59:26;-1.00;99.90
14144;DHT22;7152;48.348;10.980;2023-02-26T18:01:51;-1.00;99.90
14144;DHT22;7152;48.348;10.980;2023-02-26T18:04:18;-1.00;99.90
14144;DHT22;7152;48.348;10.980;2023-02-26T18:06:43;-1.00;99.90
14144;DHT22;7152;48.348;10.980;2023-02-26T18:09:11;-1.00;99.90
14144;DHT22;7152;48.348;10.980;2023-02-26T18:11:36;-1.00;99.90
14144;DHT22;7152;48.348;10.980;2023-02-26T18:14:03;-1.00;99.90
14144;DHT22;7152;48.348;10.980;2023-02-26T18:16:32;-0.90;99.90
14144;DHT22;7152;48.348;10.980;2023-02-26T18:18:59;-0.90;99.90
14144;DHT22;7152;48.348;10.980;2023-02-26T18:21:25;-0.90;99.90
14144;DHT22;7152;48.348;10.980;2023-02-26T18:23:51;-0.90;99.90
14144;DHT22;7152;48.348;10.980;2023-02-26T18:26:21;-0.90;99.90
14144;DHT22;7152;48.348;10.980;2023-02-26T18:28:48;-0.90;99.90
14144;DHT22;7152;48.348;10.980;2023-02-26T18:31:16;-0.90;99.90
14144;DHT22;7152;48.348;10.980;2023-02-26T18:33:42;-0.90;99.90
14144;DHT22;7152;48.348;10.980;2023-02-26T18:36:18;-0.90;99.90
14144;DHT22;7152;48.348;10.980;2023-02-26T18:38:45;-0.90;99.90
14144;DHT22;7152;48.348;10.980;2023-02-26T18:41:10;-1.00;99.90
14144;DHT22;7152;48.348;10.980;2023-02-26T18:43:36;-1.10;99.90
14144;DHT22;7152;48.348;10.980;2023-02-26T18:46:01;-1.10;99.90
14144;DHT22;7152;48.348;10.980;2023-02-26T18:48:27;-1.10;99.90
14144;DHT22;7152;48.348;10.980;2023-02-26T18:50:53;-1.10;99.90
14144;DHT22;7152;48.348;10.980;2023-02-26T18:53:20;-1.10;99.90
14144;DHT22;7152;48.348;10.980;2023-02-26T18:55:52;-1.10;99.90
14144;DHT22;7152;48.348;10.980;2023-02-26T18:58:19;-1.10;99.90
14144;DHT22;7152;48.348;10.980;2023-02-26T19:00:45;-1.00;99.90
14144;DHT22;7152;48.348;10.980;2023-02-26T19:03:11;-1.00;99.90
14144;DHT22;7152;48.348;10.980;2023-02-26T19:05:37;-1.00;99.90
14144;DHT22;7152;48.348;10.980;2023-02-26T19:08:03;-1.10;99.90
14144;DHT22;7152;48.348;10.980;2023-02-26T19:10:29;-1.00;99.90